Time;durP1;ratioP1;P1;durP2;ratioP2;P2;SDS_P1;SDS_P2;PMS_P1;PMS_P2;Temp;Humidity;BMP_temperature;BMP_pressure;BME280_temperature;BME280_humidity;BME280_pressure;Samples;Min_cycle;Max_cycle;Signal;HPM_P1;HPM_P2
2023/12/15 00:00:00;;;;;;;5.97;4.13;;;8.90;81.00;;;;;;4977496;28;20035;-75
2023/12/15 00:02:27;;;;;;;5.72;4.40;;;8.90;81.00;;;;;;4993823;28;20041;-75
2023/12/15 00:04:52;;;;;;;5.72;4.40;;;8.90;81.00;;;;;;4977617;28;20471;-75
2023/12/15 00:07:18;;;;;;;5.40;4.40;;;8.90;81.00;;;;;;4977601;28;20125;-76
2023/12/15 00:09:44;;;;;;;5.53;4.25;;;8.90;80.90;;;;;;4993585;28;20034;-76
2023/12/15 00:12:10;;;;;;;5.03;3.92;;;8.90;81.00;;;;;;4993590;28;20494;-76
2023/12/15 00:14:35;;;;;;;5.60;4.13;;;8.90;80.90;;;;;;4994974;28;20113;-75
2023/12/15 00:17:02;;;;;;;4.95;3.85;;;8.90;80.90;;;;;;4977540;28;20046;-75
2023/12/15 00:19:28;;;;;;;5.25;4.07;;;8.90;80.90;;;;;;4977543;28;20176;-75
2023/12/15 00:21:54;;;;;;;5.40;4.13;;;8.90;80.90;;;;;;4977572;28;20109;-75
2023/12/15 00:24:19;;;;;;;5.30;3.90;;;8.90;80.90;;;;;;4977132;28;20053;-76
2023/12/15 00:26:45;;;;;;;5.88;3.92;;;8.90;80.90;;;;;;4977051;28;20050;-75
2023/12/15 00:29:11;;;;;;;5.20;4.10;;;8.90;81.00;;;;;;4977058;28;20064;-75
2023/12/15 00:31:37;;;;;;;5.72;4.20;;;8.90;80.90;;;;;;4977432;28;20030;-75
2023/12/15 00:34:02;;;;;;;5.40;3.65;;;8.90;80.90;;;;;;4994411;28;20026;-76
2023/12/15 00:36:28;;;;;;;4.93;3.65;;;8.90;80.90;;;;;;4975968;28;20117;-76
2023/12/15 00:38:54;;;;;;;5.78;4.00;;;8.90;80.90;;;;;;4976930;28;20038;-75
2023/12/15 00:41:20;;;;;;;5.57;3.95;;;9.00;81.00;;;;;;4993095;28;20026;-76
2023/12/15 00:43:45;;;;;;;6.57;3.88;;;9.00;81.00;;;;;;4993106;28;20035;-75
2023/12/15 00:46:11;;;;;;;5.65;4.07;;;9.00;81.00;;;;;;4976715;28;20034;-75
2023/12/15 00:48:37;;;;;;;5.25;3.75;;;8.90;80.90;;;;;;4976858;28;20035;-76
2023/12/15 00:51:02;;;;;;;5.68;3.90;;;8.90;80.90;;;;;;4992734;28;20030;-77
2023/12/15 00:53:32;;;;;;;6.03;4.22;;;9.00;80.90;;;;;;4976999;28;20069;-77
2023/12/15 00:56:00;;;;;;;5.30;4.03;;;9.00;81.00;;;;;;4976644;28;20057;-76
2023/12/15 00:58:26;;;;;;;4.95;3.78;;;9.00;81.00;;;;;;4976857;28;20018;-75
2023/12/15 01:00:51;;;;;;;5.40;4.03;;;8.90;80.90;;;;;;4992801;28;20062;-76
2023/12/15 01:03:17;;;;;;;5.10;3.88;;;9.00;81.00;;;;;;4976522;28;20352;-75
2023/12/15 01:05:43;;;;;;;5.57;4.18;;;9.00;80.90;;;;;;4993385;28;20038;-75
2023/12/15 01:08:08;;;;;;;5.15;3.95;;;9.00;80.90;;;;;;4976269;28;20050;-75
2023/12/15 01:10:34;;;;;;;5.25;3.95;;;9.00;80.90;;;;;;4992902;28;20484;-77
2023/12/15 01:13:00;;;;;;;5.35;3.85;;;9.00;80.90;;;;;;4993739;28;20032;-73
2023/12/15 01:15:25;;;;;;;5.30;3.90;;;9.00;80.90;;;;;;4976280;28;20467;-76
2023/12/15 01:17:51;;;;;;;5.80;4.22;;;9.00;80.90;;;;;;4976601;28;20109;-75
2023/12/15 01:20:17;;;;;;;6.43;4.25;;;9.00;80.90;;;;;;4992223;28;20065;-75
2023/12/15 01:22:43;;;;;;;5.53;3.85;;;9.10;80.90;;;;;;4976287;28;20031;-75
2023/12/15 01:25:10;;;;;;;5.60;4.40;;;9.00;80.90;;;;;;4976248;28;20062;-75
2023/12/15 01:27:35;;;;;;;6.47;4.53;;;9.00;80.90;;;;;;4992201;28;20417;-75
2023/12/15 01:30:02;;;;;;;6.38;4.68;;;9.00;80.90;;;;;;4993424;28;20038;-75
2023/12/15 01:32:28;;;;;;;6.05;4.35;;;9.00;80.90;;;;;;4976425;28;20061;-76
2023/12/15 01:34:53;;;;;;;6.35;4.65;;;9.10;80.90;;;;;;4992433;28;20434;-75
2023/12/15 01:37:19;;;;;;;7.03;5.07;;;9.00;80.90;;;;;;4992271;28;20030;-76
2023/12/15 01:39:45;;;;;;;6.47;4.75;;;9.00;80.90;;;;;;4994029;28;20034;-75
2023/12/15 01:42:11;;;;;;;5.80;4.57;;;9.10;80.90;;;;;;4976131;28;20026;-76
2023/12/15 01:44:36;;;;;;;6.13;5.00;;;9.10;80.90;;;;;;4975981;28;20039;-75
2023/12/15 01:47:02;;;;;;;6.25;4.72;;;9.10;80.90;;;;;;4977280;28;20038;-75
2023/12/15 01:49:29;;;;;;;6.38;4.97;;;9.10;80.90;;;;;;4979631;28;20052;-76
2023/12/15 01:51:55;;;;;;;7.60;5.78;;;9.10;80.90;;;;;;4996059;28;20345;-75
2023/12/15 01:54:21;;;;;;;7.25;5.15;;;9.10;80.90;;;;;;4979491;28;20038;-75
2023/12/15 01:56:46;;;;;;;8.32;5.28;;;9.10;80.90;;;;;;4996995;28;20030;-75
2023/12/15 01:59:12;;;;;;;6.25;4.88;;;9.10;80.90;;;;;;4979581;28;20431;-75
2023/12/15 02:01:38;;;;;;;6.80;5.40;;;9.10;80.80;;;;;;4996062;28;20545;-73
2023/12/15 02:04:04;;;;;;;7.25;5.13;;;9.10;80.80;;;;;;4996287;28;20042;-75
2023/12/15 02:06:30;;;;;;;6.45;5.25;;;9.10;80.80;;;;;;4995695;28;20554;-76
2023/12/15 02:08:56;;;;;;;7.32;5.57;;;9.20;80.90;;;;;;4979872;28;20073;-75
2023/12/15 02:11:22;;;;;;;8.10;5.63;;;9.20;80.90;;;;;;4979631;28;20485;-76
2023/12/15 02:13:47;;;;;;;7.20;5.35;;;9.10;80.80;;;;;;4979577;28;20066;-75
2023/12/15 02:16:14;;;;;;;6.75;5.45;;;9.20;80.90;;;;;;4995528;28;20058;-75
2023/12/15 02:18:40;;;;;;;7.18;5.20;;;9.20;80.90;;;;;;4995651;28;20035;-75
2023/12/15 02:21:06;;;;;;;7.45;5.65;;;9.10;80.80;;;;;;4995621;28;20045;-75
2023/12/15 02:23:31;;;;;;;7.05;5.60;;;9.10;80.80;;;;;;4980206;28;20026;-75
2023/12/15 02:25:57;;;;;;;8.00;5.97;;;9.10;80.80;;;;;;4995364;28;20478;-75
2023/12/15 02:28:23;;;;;;;7.60;6.07;;;9.20;80.90;;;;;;4995579;28;20471;-74
2023/12/15 02:30:48;;;;;;;8.18;5.20;;;9.20;80.90;;;;;;4995707;28;20058;-74
2023/12/15 02:33:14;;;;;;;7.55;5.85;;;9.20;80.90;;;;;;4979546;28;20487;-76
2023/12/15 02:35:41;;;;;;;7.80;5.55;;;9.20;80.90;;;;;;4979186;28;20493;-75
2023/12/15 02:38:10;;;;;;;7.47;6.00;;;9.20;80.90;;;;;;4979091;28;20471;-75
2023/12/15 02:40:35;;;;;;;7.32;5.88;;;9.20;80.90;;;;;;4996970;28;20142;-75
2023/12/15 02:43:01;;;;;;;8.23;6.22;;;9.20;80.80;;;;;;4995336;28;20117;-76
2023/12/15 02:45:27;;;;;;;7.97;6.07;;;9.20;80.80;;;;;;4995239;28;20177;-75
2023/12/15 02:47:53;;;;;;;7.63;5.85;;;9.20;80.80;;;;;;4995653;28;20043;-76
2023/12/15 02:50:19;;;;;;;8.50;6.13;;;9.20;80.80;;;;;;4978890;28;20039;-75
2023/12/15 02:52:45;;;;;;;8.43;6.70;;;9.20;80.80;;;;;;4995193;28;20368;-76
2023/12/15 02:55:12;;;;;;;9.10;6.97;;;9.20;80.80;;;;;;4978909;28;20472;-75
2023/12/15 02:57:39;;;;;;;8.55;6.25;;;9.20;80.80;;;;;;4979209;28;20038;-76
2023/12/15 03:00:06;;;;;;;8.48;6.25;;;9.30;81.50;;;;;;4978043;28;20107;-74
2023/12/15 03:02:31;;;;;;;8.32;6.07;;;9.20;80.80;;;;;;4979280;28;20058;-75
2023/12/15 03:04:57;;;;;;;7.82;6.07;;;9.30;80.80;;;;;;4994533;28;20065;-76
2023/12/15 03:07:24;;;;;;;7.35;6.13;;;9.30;80.80;;;;;;4994489;28;20109;-75
2023/12/15 03:09:50;;;;;;;8.73;6.45;;;9.30;80.80;;;;;;4978418;28;20038;-76
2023/12/15 03:12:15;;;;;;;8.70;6.93;;;9.30;80.80;;;;;;4994739;28;20047;-77
2023/12/15 03:14:41;;;;;;;9.85;6.93;;;9.30;80.70;;;;;;4994888;28;20037;-75
2023/12/15 03:17:07;;;;;;;8.25;6.47;;;9.30;80.70;;;;;;4978276;28;20124;-76
2023/12/15 03:19:32;;;;;;;8.68;6.10;;;9.30;80.70;;;;;;4978424;28;20057;-76
2023/12/15 03:21:58;;;;;;;8.23;6.15;;;9.30;80.80;;;;;;4995562;28;20077;-76
2023/12/15 03:24:24;;;;;;;8.73;6.72;;;9.30;80.70;;;;;;4995919;28;20030;-75
2023/12/15 03:26:50;;;;;;;9.73;6.78;;;9.30;80.70;;;;;;4978576;28;20045;-75
2023/12/15 03:29:16;;;;;;;9.98;6.90;;;9.30;80.80;;;;;;4994620;28;20046;-77
2023/12/15 03:31:41;;;;;;;9.10;6.43;;;9.30;80.70;;;;;;4978202;28;20035;-74
2023/12/15 03:34:08;;;;;;;8.73;6.60;;;9.30;80.70;;;;;;4978008;28;20045;-75
2023/12/15 03:36:38;;;;;;;8.95;6.57;;;9.30;80.70;;;;;;4978315;28;20031;-75
2023/12/15 03:39:08;;;;;;;8.88;6.43;;;9.40;80.70;;;;;;4978305;28;20555;-76
2023/12/15 03:41:34;;;;;;;8.15;6.43;;;9.40;80.70;;;;;;4978229;28;20113;-75
2023/12/15 03:44:00;;;;;;;9.18;6.82;;;9.40;80.60;;;;;;4994183;28;20106;-75
2023/12/15 03:46:26;;;;;;;8.20;6.47;;;9.40;80.70;;;;;;4994511;28;20387;-75
2023/12/15 03:48:51;;;;;;;8.80;6.97;;;9.40;80.70;;;;;;4994269;28;20080;-75
2023/12/15 03:51:17;;;;;;;9.90;7.90;;;9.40;80.60;;;;;;4994249;28;20479;-76
2023/12/15 03:53:43;;;;;;;10.30;7.30;;;9.40;80.60;;;;;;4994233;28;20117;-75
2023/12/15 03:56:09;;;;;;;9.85;7.55;;;9.40;80.70;;;;;;4994186;28;20128;-77
2023/12/15 03:58:35;;;;;;;8.95;6.85;;;9.40;80.70;;;;;;4993805;28;20031;-75
2023/12/15 04:01:00;;;;;;;9.32;7.38;;;9.40;80.60;;;;;;4993941;28;20030;-76
2023/12/15 04:03:27;;;;;;;9.27;7.10;;;9.40;80.70;;;;;;4977358;28;20102;-77
2023/12/15 04:05:53;;;;;;;10.75;7.93;;;9.40;80.70;;;;;;4993478;28;20038;-75
2023/12/15 04:08:18;;;;;;;10.80;7.57;;;9.40;80.70;;;;;;4994209;28;20084;-76
2023/12/15 04:10:44;;;;;;;10.85;7.15;;;9.40;80.70;;;;;;4977506;28;20085;-76
2023/12/15 04:13:10;;;;;;;9.52;7.00;;;9.40;80.70;;;;;;4977727;28;20101;-76
2023/12/15 04:15:35;;;;;;;9.50;6.82;;;9.40;80.60;;;;;;4977385;28;20042;-75
2023/12/15 04:18:04;;;;;;;11.68;7.45;;;9.50;80.60;;;;;;4993531;28;20149;-76
2023/12/15 04:20:30;;;;;;;10.88;7.65;;;9.50;80.70;;;;;;4993733;28;20488;-75
2023/12/15 04:22:56;;;;;;;10.38;7.28;;;9.50;80.70;;;;;;4977915;28;20383;-76
2023/12/15 04:25:22;;;;;;;9.70;7.68;;;9.50;80.60;;;;;;4976827;28;20035;-76
2023/12/15 04:27:48;;;;;;;11.18;8.15;;;9.50;80.60;;;;;;4993231;28;20038;-76
2023/12/15 04:30:13;;;;;;;10.52;7.85;;;9.50;80.60;;;;;;4977129;28;20134;-75
2023/12/15 04:32:39;;;;;;;10.77;7.55;;;9.50;80.70;;;;;;4977728;28;20058;-74
2023/12/15 04:35:05;;;;;;;10.35;8.07;;;9.50;80.60;;;;;;4976964;28;20057;-75
2023/12/15 04:37:31;;;;;;;10.95;7.47;;;9.50;80.60;;;;;;4993861;28;20058;-75
2023/12/15 04:39:57;;;;;;;9.93;7.93;;;9.50;80.60;;;;;;4977421;28;20470;-76
2023/12/15 04:42:22;;;;;;;9.98;7.40;;;9.50;80.60;;;;;;4993083;28;20092;-75
2023/12/15 04:44:48;;;;;;;10.15;7.50;;;9.50;80.60;;;;;;4976803;28;20026;-77
2023/12/15 04:47:14;;;;;;;11.43;8.00;;;9.50;80.60;;;;;;4976820;28;20027;-75
2023/12/15 04:49:40;;;;;;;9.68;7.38;;;9.50;80.60;;;;;;4976845;28;20035;-75
2023/12/15 04:52:05;;;;;;;11.20;7.68;;;9.50;80.60;;;;;;4977109;28;20034;-75
2023/12/15 04:54:31;;;;;;;10.32;7.50;;;9.50;80.60;;;;;;4976781;28;20465;-76
2023/12/15 04:56:57;;;;;;;11.18;7.72;;;9.50;80.60;;;;;;4976537;28;20042;-76
2023/12/15 04:59:23;;;;;;;10.65;7.22;;;9.50;80.60;;;;;;4993112;28;20034;-77
2023/12/15 05:01:48;;;;;;;10.32;7.93;;;9.50;80.60;;;;;;4992996;28;20114;-76
2023/12/15 05:04:14;;;;;;;11.15;7.57;;;9.60;80.70;;;;;;4992712;28;20082;-76
2023/12/15 05:06:40;;;;;;;11.45;7.72;;;9.60;80.60;;;;;;4976423;28;20046;-75
2023/12/15 05:09:08;;;;;;;10.82;7.13;;;9.60;80.60;;;;;;4992815;28;20493;-76
2023/12/15 05:11:35;;;;;;;11.23;7.85;;;9.60;80.60;;;;;;4977071;28;20490;-75
2023/12/15 05:14:01;;;;;;;11.88;8.23;;;9.60;80.60;;;;;;4976712;28;20039;-75
2023/12/15 05:16:29;;;;;;;11.32;8.32;;;9.60;80.60;;;;;;4976609;28;20038;-76
2023/12/15 05:18:54;;;;;;;11.05;7.93;;;9.60;80.60;;;;;;4976615;28;20034;-75
2023/12/15 05:21:20;;;;;;;11.40;7.75;;;9.60;80.60;;;;;;4992223;28;20123;-76
2023/12/15 05:23:46;;;;;;;12.15;8.85;;;9.60;80.60;;;;;;4976375;28;20117;-76
2023/12/15 05:26:12;;;;;;;11.32;8.25;;;9.60;80.60;;;;;;4976123;28;20034;-75
2023/12/15 05:28:38;;;;;;;13.18;8.40;;;9.60;80.60;;;;;;4992261;28;20034;-76
2023/12/15 05:31:04;;;;;;;11.70;8.20;;;9.60;80.60;;;;;;4977196;28;20107;-76
2023/12/15 05:33:29;;;;;;;11.23;8.20;;;9.70;80.70;;;;;;4960807;28;20107;-76
2023/12/15 05:35:55;;;;;;;11.60;8.18;;;9.60;80.60;;;;;;4993080;28;20508;-76
2023/12/15 05:38:21;;;;;;;11.55;8.38;;;9.60;80.50;;;;;;4992209;28;20054;-75
2023/12/15 05:40:47;;;;;;;11.15;8.30;;;9.70;80.60;;;;;;4992280;28;20050;-77
2023/12/15 05:43:13;;;;;;;11.68;8.27;;;9.60;80.50;;;;;;4993121;28;20041;-76
2023/12/15 05:45:39;;;;;;;12.07;8.55;;;9.70;80.60;;;;;;4976152;28;20035;-75
2023/12/15 05:48:05;;;;;;;10.73;7.47;;;9.70;80.60;;;;;;4992461;28;20037;-76
2023/12/15 05:50:30;;;;;;;11.60;8.60;;;9.70;80.60;;;;;;4976834;28;20034;-76
2023/12/15 05:52:56;;;;;;;12.82;9.23;;;9.70;80.60;;;;;;5008045;28;20033;-76
2023/12/15 05:55:22;;;;;;;13.05;9.02;;;9.70;80.60;;;;;;4994076;28;20100;-75
2023/12/15 05:57:48;;;;;;;11.48;9.13;;;9.70;80.60;;;;;;4976082;28;20372;-77
2023/12/15 06:00:14;;;;;;;13.27;9.52;;;9.70;80.60;;;;;;4976022;28;20061;-75
2023/12/15 06:02:40;;;;;;;12.18;8.75;;;9.70;80.60;;;;;;4959892;28;20093;-75
2023/12/15 06:05:06;;;;;;;13.07;8.80;;;9.70;80.60;;;;;;4975909;28;20036;-76
2023/12/15 06:07:33;;;;;;;11.73;8.77;;;9.70;80.60;;;;;;4991928;28;20062;-75
2023/12/15 06:10:00;;;;;;;11.63;8.30;;;9.70;80.60;;;;;;4993690;28;20053;-75
2023/12/15 06:12:25;;;;;;;11.70;8.95;;;9.70;80.60;;;;;;4976064;28;20105;-78
2023/12/15 06:14:51;;;;;;;12.57;8.88;;;9.70;80.60;;;;;;4975642;28;20034;-76
2023/12/15 06:17:17;;;;;;;12.15;9.02;;;9.70;80.50;;;;;;4991840;28;20038;-76
2023/12/15 06:19:43;;;;;;;12.65;8.95;;;9.70;80.50;;;;;;4991936;28;20039;-75
2023/12/15 06:22:08;;;;;;;10.75;8.13;;;9.70;80.50;;;;;;4975745;28;20037;-76
2023/12/15 06:24:34;;;;;;;12.27;8.40;;;9.70;80.50;;;;;;4993392;28;20038;-76
2023/12/15 06:27:00;;;;;;;11.20;8.15;;;9.80;80.60;;;;;;4975494;28;20035;-76
2023/12/15 06:29:25;;;;;;;13.23;9.27;;;9.80;80.60;;;;;;4975651;28;20046;-76
2023/12/15 06:31:51;;;;;;;12.60;8.63;;;9.80;80.60;;;;;;4992146;28;20065;-75
2023/12/15 06:34:17;;;;;;;12.95;8.95;;;9.80;80.60;;;;;;4993388;28;20054;-76
2023/12/15 06:36:42;;;;;;;11.43;8.52;;;9.80;80.60;;;;;;4979192;28;20372;-77
2023/12/15 06:39:08;;;;;;;12.98;8.77;;;9.80;80.60;;;;;;4979173;28;20041;-76
2023/12/15 06:41:34;;;;;;;10.68;7.57;;;9.80;80.60;;;;;;4995368;28;20042;-76
2023/12/15 06:44:00;;;;;;;12.35;9.10;;;9.80;80.60;;;;;;4996433;28;20034;-76
2023/12/15 06:46:26;;;;;;;13.05;9.05;;;9.80;80.60;;;;;;4979637;28;20386;-76
2023/12/15 06:48:53;;;;;;;13.45;9.30;;;9.80;80.60;;;;;;4995263;28;20430;-76
2023/12/15 06:51:19;;;;;;;14.13;9.23;;;9.80;80.60;;;;;;4979141;28;20023;-77
2023/12/15 06:53:45;;;;;;;11.73;8.90;;;9.80;80.60;;;;;;4979095;28;20026;-77
2023/12/15 06:56:11;;;;;;;12.07;8.60;;;9.80;80.50;;;;;;4995752;28;20109;-76
2023/12/15 06:58:36;;;;;;;11.38;8.45;;;9.80;80.50;;;;;;4994645;28;20165;-75
2023/12/15 07:01:02;;;;;;;10.95;8.20;;;9.80;80.50;;;;;;4994950;28;20475;-78
2023/12/15 07:03:28;;;;;;;11.63;8.73;;;9.80;80.50;;;;;;4978721;28;20041;-76
2023/12/15 07:05:54;;;;;;;11.93;8.85;;;9.80;80.50;;;;;;4994148;28;20097;-76
2023/12/15 07:08:20;;;;;;;12.02;8.98;;;9.80;80.50;;;;;;4978352;28;20031;-76
2023/12/15 07:10:46;;;;;;;12.48;8.63;;;9.80;80.50;;;;;;4978609;28;20110;-76
2023/12/15 07:13:11;;;;;;;11.57;8.73;;;9.80;80.50;;;;;;4994274;28;20122;-75
2023/12/15 07:15:37;;;;;;;11.70;8.65;;;9.80;80.50;;;;;;4978951;28;20023;-75
2023/12/15 07:18:03;;;;;;;12.18;9.20;;;9.90;80.60;;;;;;4995661;28;20034;-75
2023/12/15 07:20:29;;;;;;;12.00;8.55;;;9.90;80.60;;;;;;4994578;28;20022;-76
2023/12/15 07:22:55;;;;;;;11.52;8.52;;;9.90;80.60;;;;;;4995749;28;20034;-76
2023/12/15 07:25:24;;;;;;;11.10;8.20;;;9.90;80.60;;;;;;4995052;28;20424;-76
2023/12/15 07:27:51;;;;;;;11.55;8.32;;;9.90;80.50;;;;;;4994776;28;20084;-76
2023/12/15 07:30:17;;;;;;;11.85;8.75;;;9.90;80.50;;;;;;4977983;28;20125;-75
2023/12/15 07:32:42;;;;;;;10.90;8.10;;;9.90;80.50;;;;;;4978383;28;20476;-75
2023/12/15 07:35:09;;;;;;;11.55;8.75;;;9.90;80.50;;;;;;4977980;28;20479;-76
2023/12/15 07:37:34;;;;;;;12.13;9.05;;;9.90;80.60;;;;;;4977934;28;20138;-76
2023/12/15 07:40:00;;;;;;;11.70;8.30;;;9.90;80.50;;;;;;4994884;28;20117;-75
2023/12/15 07:42:26;;;;;;;12.63;8.40;;;9.90;80.50;;;;;;4978148;28;20038;-75
2023/12/15 07:44:52;;;;;;;12.10;9.02;;;9.90;80.50;;;;;;4977699;28;20106;-76
2023/12/15 07:47:18;;;;;;;11.88;8.73;;;9.90;80.50;;;;;;4978297;28;20474;-75
2023/12/15 07:49:43;;;;;;;11.68;8.43;;;9.90;80.50;;;;;;4993934;28;20061;-76
2023/12/15 07:52:09;;;;;;;10.85;8.15;;;9.90;80.50;;;;;;4978527;28;20110;-74
2023/12/15 07:54:36;;;;;;;11.25;8.50;;;9.90;80.50;;;;;;4977457;28;20041;-76
2023/12/15 07:57:01;;;;;;;13.13;9.02;;;9.90;80.50;;;;;;4994269;28;20143;-74
2023/12/15 07:59:27;;;;;;;11.68;8.52;;;9.90;80.50;;;;;;4978284;28;20038;-76
2023/12/15 08:01:55;;;;;;;12.32;8.75;;;10.00;80.60;;;;;;4977452;28;20058;-76
2023/12/15 08:04:21;;;;;;;11.15;8.15;;;9.90;80.50;;;;;;4993788;28;20110;-76
2023/12/15 08:06:46;;;;;;;12.73;9.30;;;9.90;80.50;;;;;;4993139;28;20073;-76
2023/12/15 08:09:12;;;;;;;13.13;9.18;;;10.00;80.50;;;;;;4977751;28;20030;-74
2023/12/15 08:11:38;;;;;;;11.65;8.95;;;9.90;80.50;;;;;;4978006;28;20038;-77
2023/12/15 08:14:04;;;;;;;12.38;9.07;;;10.00;80.50;;;;;;4977174;28;20036;-74
2023/12/15 08:16:30;;;;;;;12.25;8.73;;;10.00;80.50;;;;;;4976999;28;20038;-74
2023/12/15 08:18:57;;;;;;;11.52;8.43;;;10.00;80.50;;;;;;4977052;28;20026;-74
2023/12/15 08:21:23;;;;;;;10.93;8.18;;;10.00;80.50;;;;;;4994294;28;20046;-74
2023/12/15 08:23:49;;;;;;;11.18;8.02;;;10.00;80.50;;;;;;4977062;28;20410;-77
2023/12/15 08:26:23;;;;;;;11.57;8.27;;;10.00;80.50;;;;;;4977135;28;20475;-74
2023/12/15 08:28:49;;;;;;;10.57;8.18;;;10.00;80.50;;;;;;4993068;28;20092;-77
2023/12/15 08:31:15;;;;;;;11.02;7.97;;;10.00;80.50;;;;;;4994300;28;20456;-75
2023/12/15 08:33:42;;;;;;;11.55;7.75;;;10.00;80.50;;;;;;4993224;28;20037;-75
2023/12/15 08:36:09;;;;;;;11.23;7.70;;;10.10;80.50;;;;;;4976701;28;20035;-75
2023/12/15 08:38:36;;;;;;;11.18;8.18;;;10.00;80.50;;;;;;4992774;28;20080;-77
2023/12/15 08:41:02;;;;;;;11.60;8.57;;;10.00;80.50;;;;;;4976684;28;20033;-75
2023/12/15 08:43:28;;;;;;;12.32;8.98;;;10.00;80.50;;;;;;4992957;28;20042;-76
2023/12/15 08:45:54;;;;;;;12.25;8.52;;;10.00;80.50;;;;;;4976836;28;20035;-76
2023/12/15 08:48:20;;;;;;;11.05;7.95;;;10.00;80.50;;;;;;4977000;28;20033;-76
2023/12/15 08:50:45;;;;;;;10.82;8.05;;;10.00;80.50;;;;;;4976837;28;20057;-75
2023/12/15 08:53:15;;;;;;;11.45;8.13;;;10.10;80.50;;;;;;4993493;28;20030;-75
2023/12/15 08:55:41;;;;;;;12.15;8.77;;;10.00;80.40;;;;;;4992934;28;20038;-76
2023/12/15 08:58:07;;;;;;;11.73;8.75;;;10.10;80.50;;;;;;4992574;28;20027;-75
2023/12/15 09:00:33;;;;;;;10.10;7.85;;;10.10;80.50;;;;;;4976194;28;20133;-77
2023/12/15 09:02:59;;;;;;;11.38;8.02;;;10.10;80.50;;;;;;4992692;28;20042;-75
2023/12/15 09:05:25;;;;;;;10.40;7.43;;;10.10;80.40;;;;;;4976409;28;20125;-76
2023/12/15 09:07:51;;;;;;;11.50;8.20;;;10.10;80.50;;;;;;4976339;28;20097;-76
2023/12/15 09:10:18;;;;;;;9.55;7.68;;;10.10;80.50;;;;;;4992585;28;20479;-75
2023/12/15 09:12:44;;;;;;;11.73;9.00;;;10.10;80.40;;;;;;4992807;28;20038;-75
2023/12/15 09:15:10;;;;;;;11.25;8.02;;;10.10;80.40;;;;;;4976509;28;20460;-74
2023/12/15 09:17:36;;;;;;;11.00;7.75;;;10.10;80.40;;;;;;4976184;28;20043;-73
2023/12/15 09:20:03;;;;;;;11.77;8.93;;;10.10;80.40;;;;;;4976308;28;20035;-76
2023/12/15 09:22:30;;;;;;;10.48;7.80;;;10.10;80.40;;;;;;4992421;28;20110;-72
2023/12/15 09:24:56;;;;;;;11.23;8.40;;;10.10;80.40;;;;;;4976971;28;20380;-75
2023/12/15 09:27:21;;;;;;;10.90;7.72;;;10.20;80.40;;;;;;4976946;28;20034;-75
2023/12/15 09:29:47;;;;;;;9.98;7.45;;;10.20;80.40;;;;;;4992343;28;20502;-74
2023/12/15 09:32:13;;;;;;;9.90;7.88;;;10.20;80.40;;;;;;4976841;28;20034;-74
2023/12/15 09:34:38;;;;;;;10.25;7.65;;;10.20;80.40;;;;;;4976230;28;20553;-74
2023/12/15 09:37:04;;;;;;;10.52;8.35;;;10.20;80.40;;;;;;4976019;28;20376;-75
2023/12/15 09:39:30;;;;;;;9.60;7.53;;;10.20;80.40;;;;;;4992087;28;20061;-75
2023/12/15 09:41:56;;;;;;;11.30;7.90;;;10.20;81.00;;;;;;4992090;28;20394;-74
2023/12/15 09:44:22;;;;;;;10.57;8.23;;;10.20;80.40;;;;;;4975118;28;20030;-75
2023/12/15 09:46:48;;;;;;;10.98;7.65;;;10.20;80.30;;;;;;4972200;28;20451;-74
2023/12/15 09:49:18;;;;;;;9.98;7.72;;;10.20;80.30;;;;;;4993080;28;20494;-77
2023/12/15 09:51:50;;;;;;;11.07;8.35;;;10.20;80.30;;;;;;4972939;28;20478;-76
2023/12/15 09:54:17;;;;;;;10.57;8.15;;;10.30;80.40;;;;;;4991293;28;20034;-75
2023/12/15 09:56:43;;;;;;;10.48;7.90;;;10.20;80.30;;;;;;4991158;28;20034;-74
2023/12/15 09:59:09;;;;;;;10.25;7.88;;;10.30;80.30;;;;;;4975437;28;20033;-75
2023/12/15 10:01:35;;;;;;;10.68;7.93;;;10.30;80.30;;;;;;4991547;28;20030;-75
2023/12/15 10:04:01;;;;;;;9.48;6.97;;;10.30;80.30;;;;;;4991791;28;20030;-75
2023/12/15 10:06:27;;;;;;;10.45;7.72;;;10.30;80.30;;;;;;4975838;28;20140;-74
2023/12/15 10:08:53;;;;;;;11.13;8.00;;;10.30;80.30;;;;;;4995035;28;20340;-75
2023/12/15 10:11:18;;;;;;;9.43;7.53;;;10.30;80.20;;;;;;4979532;28;20038;-75
2023/12/15 10:13:44;;;;;;;10.45;7.95;;;10.30;80.20;;;;;;4995827;28;20061;-76
2023/12/15 10:16:11;;;;;;;10.38;8.07;;;10.30;80.20;;;;;;4979641;28;20101;-75
2023/12/15 10:18:40;;;;;;;9.98;7.82;;;10.40;80.20;;;;;;4995648;28;20185;-74
2023/12/15 10:21:06;;;;;;;9.35;7.07;;;10.40;80.20;;;;;;4979338;28;20027;-75
2023/12/15 10:23:32;;;;;;;9.68;7.18;;;10.40;80.30;;;;;;4979275;28;20037;-75
2023/12/15 10:25:59;;;;;;;9.00;7.25;;;10.40;80.20;;;;;;4979143;28;20105;-76
2023/12/15 10:28:25;;;;;;;9.93;7.50;;;10.40;80.20;;;;;;4979599;28;20081;-75
2023/12/15 10:30:51;;;;;;;10.20;7.35;;;10.40;80.20;;;;;;4995534;28;20084;-75
2023/12/15 10:33:18;;;;;;;9.82;7.07;;;10.40;80.10;;;;;;4995679;28;20031;-76
2023/12/15 10:35:48;;;;;;;9.18;7.05;;;10.40;80.10;;;;;;4979573;28;20495;-75
2023/12/15 10:38:17;;;;;;;9.48;7.20;;;10.50;80.20;;;;;;4995350;28;20045;-77
2023/12/15 10:40:43;;;;;;;10.10;7.30;;;10.50;80.20;;;;;;4979503;28;20085;-76
2023/12/15 10:43:13;;;;;;;9.40;6.70;;;10.50;80.20;;;;;;4994920;28;20061;-75
2023/12/15 10:45:39;;;;;;;8.93;7.15;;;10.50;80.20;;;;;;4994402;28;20046;-76
2023/12/15 10:48:07;;;;;;;9.80;6.95;;;10.50;80.20;;;;;;4977907;28;20084;-75
2023/12/15 10:50:33;;;;;;;9.43;7.03;;;10.50;80.10;;;;;;4978093;28;20125;-76
2023/12/15 10:53:00;;;;;;;8.85;7.03;;;10.50;80.10;;;;;;4995474;28;20034;-75
2023/12/15 10:55:28;;;;;;;9.48;6.75;;;10.50;80.10;;;;;;4978559;28;20034;-75
2023/12/15 10:57:58;;;;;;;10.65;7.07;;;10.50;80.10;;;;;;4995160;28;20038;-74
2023/12/15 11:00:24;;;;;;;9.35;6.78;;;10.60;80.20;;;;;;4978850;28;20514;-75
2023/12/15 11:02:51;;;;;;;8.73;6.85;;;10.60;80.20;;;;;;4994596;28;20484;-75
2023/12/15 11:05:17;;;;;;;8.73;6.68;;;10.60;80.20;;;;;;4978558;28;20132;-76
2023/12/15 11:07:43;;;;;;;9.63;6.72;;;10.60;80.20;;;;;;4994444;28;20046;-78
2023/12/15 11:10:12;;;;;;;8.45;6.53;;;10.60;80.20;;;;;;4994206;28;20030;-76
2023/12/15 11:12:42;;;;;;;8.52;6.07;;;10.60;80.20;;;;;;4978620;28;20058;-76
2023/12/15 11:15:18;;;;;;;8.48;6.50;;;10.70;80.20;;;;;;4995604;28;20033;-75
2023/12/15 11:17:47;;;;;;;8.93;6.38;;;10.70;80.20;;;;;;4978656;28;20097;-76
2023/12/15 11:20:34;;;;;;;8.07;5.93;;;10.70;80.20;;;;;;4993788;28;20030;-76
2023/12/15 11:23:07;;;;;;;8.73;6.65;;;10.70;80.30;;;;;;4995364;28;20035;-75
2023/12/15 11:25:56;;;;;;;7.63;5.53;;;10.70;80.20;;;;;;4994279;28;20157;-75
2023/12/15 11:28:22;;;;;;;8.40;5.82;;;10.80;80.20;;;;;;4994726;28;20454;-76
2023/12/15 11:30:52;;;;;;;8.70;6.10;;;10.80;80.20;;;;;;4978521;28;20058;-77
2023/12/15 11:33:23;;;;;;;8.65;6.20;;;10.80;80.20;;;;;;4994387;28;20474;-75
2023/12/15 11:36:00;;;;;;;8.10;5.88;;;10.80;80.20;;;;;;4978681;28;20033;-75
2023/12/15 11:38:26;;;;;;;7.35;5.72;;;10.80;80.20;;;;;;4994610;28;20031;-76
2023/12/15 11:40:55;;;;;;;8.35;6.30;;;10.80;80.20;;;;;;4995488;28;20030;-75
2023/12/15 11:43:23;;;;;;;8.32;6.50;;;10.80;80.20;;;;;;4995388;28;20034;-76
2023/12/15 11:45:51;;;;;;;8.50;6.03;;;10.80;80.20;;;;;;4978013;28;20022;-77
2023/12/15 11:48:17;;;;;;;7.70;5.20;;;10.80;80.20;;;;;;4978110;28;20078;-77
2023/12/15 11:50:47;;;;;;;9.05;5.53;;;10.90;80.20;;;;;;4993669;28;20081;-75
2023/12/15 11:53:14;;;;;;;7.07;5.47;;;10.90;80.20;;;;;;4977623;28;20121;-75
2023/12/15 11:55:46;;;;;;;7.95;5.80;;;10.90;80.20;;;;;;4977986;28;20486;-74
2023/12/15 11:58:14;;;;;;;8.32;5.00;;;10.90;80.20;;;;;;4977827;28;20026;-75
2023/12/15 12:00:41;;;;;;;7.88;5.68;;;10.90;80.20;;;;;;4977283;28;20114;-75
2023/12/15 12:03:09;;;;;;;7.43;5.22;;;10.90;80.20;;;;;;4995307;28;20034;-75
2023/12/15 12:05:35;;;;;;;7.53;5.47;;;11.00;80.20;;;;;;4993698;28;20045;-75
2023/12/15 12:08:01;;;;;;;6.82;5.15;;;11.00;80.20;;;;;;4994822;28;20042;-75
2023/12/15 12:10:35;;;;;;;7.10;5.50;;;11.00;80.20;;;;;;4993655;28;20065;-75
2023/12/15 12:13:04;;;;;;;7.20;5.22;;;11.00;80.20;;;;;;4977372;28;20383;-73
2023/12/15 12:15:29;;;;;;;7.45;4.88;;;11.00;80.10;;;;;;4977278;28;20137;-75
2023/12/15 12:17:55;;;;;;;8.48;5.40;;;11.10;80.20;;;;;;4994766;28;20066;-75
2023/12/15 12:20:21;;;;;;;7.53;5.32;;;11.10;80.20;;;;;;4977223;28;20022;-75
2023/12/15 12:22:47;;;;;;;7.15;5.22;;;11.10;80.20;;;;;;4993400;28;20030;-75
2023/12/15 12:25:15;;;;;;;9.07;5.43;;;11.10;80.10;;;;;;4977272;28;20064;-72
2023/12/15 12:27:41;;;;;;;7.47;5.10;;;11.10;80.10;;;;;;4994491;28;20038;-74
2023/12/15 12:30:16;;;;;;;7.18;4.90;;;11.10;80.10;;;;;;4993433;28;20038;-74
2023/12/15 12:32:42;;;;;;;7.10;4.90;;;11.10;80.20;;;;;;4993219;28;20053;-73
2023/12/15 12:35:08;;;;;;;6.68;4.63;;;11.20;80.10;;;;;;4993308;28;20030;-74
2023/12/15 12:37:34;;;;;;;6.80;4.82;;;11.10;80.10;;;;;;4976960;28;20034;-75
2023/12/15 12:40:03;;;;;;;7.72;4.95;;;11.20;80.10;;;;;;4977156;28;20486;-74
2023/12/15 12:42:30;;;;;;;6.88;4.72;;;11.20;80.10;;;;;;4977629;28;20491;-75